Time;durP1;ratioP1;P1;durP2;ratioP2;P2;SDS_P1;SDS_P2;PMS_P1;PMS_P2;Temp;Humidity;BMP_temperature;BMP_pressure;BME280_temperature;BME280_humidity;BME280_pressure;Samples;Min_cycle;Max_cycle;Signal;HPM_P1;HPM_P2
2024/03/09 00:01:17;;;;;;;22.60;16.70;;;6.00;99.90;;;;;;5049565;28;20448;-84
2024/03/09 00:03:46;;;;;;;19.13;14.67;;;6.00;99.90;;;;;;5049589;28;20456;-86
2024/03/09 00:06:14;;;;;;;21.77;14.93;;;6.00;99.90;;;;;;5044834;28;20569;-85
2024/03/09 00:08:44;;;;;;;24.20;18.30;;;6.10;99.90;;;;;;5042215;28;20582;-85
2024/03/09 00:11:14;;;;;;;19.13;15.67;;;6.10;99.90;;;;;;5043474;28;20496;-86
2024/03/09 00:13:43;;;;;;;27.40;17.00;;;6.10;99.90;;;;;;5044930;28;20485;-85
2024/03/09 00:16:11;;;;;;;21.13;15.50;;;6.10;99.90;;;;;;5046751;28;20971;-84
2024/03/09 00:18:40;;;;;;;26.00;17.70;;;6.00;99.90;;;;;;5045612;28;21012;-85
2024/03/09 00:21:13;;;;;;;18.23;14.93;;;6.00;99.90;;;;;;5049154;28;20998;-86
2024/03/09 00:23:41;;;;;;;21.00;15.97;;;6.00;99.90;;;;;;5061100;28;20450;-85
2024/03/09 00:26:11;;;;;;;23.67;15.60;;;6.00;99.90;;;;;;5049047;28;20474;-86
2024/03/09 00:28:40;;;;;;;19.60;13.80;;;6.00;99.90;;;;;;5044166;28;20462;-85
2024/03/09 00:31:11;;;;;;;18.97;14.10;;;5.90;99.90;;;;;;5043834;28;20483;-87
2024/03/09 00:33:41;;;;;;;21.40;13.50;;;6.00;99.90;;;;;;5047134;28;20461;-83
2024/03/09 00:36:11;;;;;;;18.60;14.20;;;6.00;99.90;;;;;;5050035;28;20440;-87
2024/03/09 00:38:41;;;;;;;18.27;12.97;;;6.00;99.90;;;;;;5047457;28;20479;-85
2024/03/09 00:41:10;;;;;;;19.20;13.80;;;5.80;99.90;;;;;;5046859;28;20461;-85
2024/03/09 00:43:46;;;;;;;17.63;13.13;;;5.70;99.90;;;;;;5043923;28;20448;-86
2024/03/09 00:46:14;;;;;;;21.53;13.77;;;5.80;99.90;;;;;;5043590;28;20474;-86
2024/03/09 00:48:43;;;;;;;18.47;13.43;;;5.80;99.90;;;;;;5051151;28;20476;-86
2024/03/09 00:51:12;;;;;;;17.30;13.83;;;5.80;99.90;;;;;;5054549;28;21207;-86
2024/03/09 00:53:41;;;;;;;17.77;13.10;;;5.80;99.90;;;;;;5044883;28;20464;-86
2024/03/09 00:56:09;;;;;;;15.30;12.03;;;5.90;99.90;;;;;;5046662;28;20461;-85
2024/03/09 00:58:38;;;;;;;17.10;13.27;;;6.00;99.90;;;;;;5047600;28;20471;-85
2024/03/09 01:01:08;;;;;;;21.93;13.40;;;6.00;99.90;;;;;;5038099;28;20458;-85
2024/03/09 01:03:36;;;;;;;23.43;16.60;;;6.00;99.90;;;;;;5045157;28;20455;-85
2024/03/09 01:06:05;;;;;;;17.47;14.50;;;5.90;99.90;;;;;;5046557;28;20446;-85
2024/03/09 01:08:35;;;;;;;18.57;12.57;;;6.00;99.90;;;;;;5039911;28;20483;-85
2024/03/09 01:11:05;;;;;;;19.60;14.50;;;6.00;99.90;;;;;;5045573;28;20448;-83
2024/03/09 01:13:35;;;;;;;20.50;13.83;;;6.00;99.90;;;;;;5042803;28;20861;-85
2024/03/09 01:16:03;;;;;;;20.10;14.30;;;6.10;99.90;;;;;;5043444;28;20517;-86
2024/03/09 01:18:42;;;;;;;18.60;13.17;;;6.00;99.90;;;;;;5046603;28;20461;-85
2024/03/09 01:21:22;;;;;;;19.67;14.40;;;6.10;99.90;;;;;;5041761;28;20453;-84
2024/03/09 01:23:51;;;;;;;17.43;13.40;;;6.10;99.90;;;;;;5041837;28;20446;-84
2024/03/09 01:26:26;;;;;;;19.90;15.47;;;6.00;99.90;;;;;;5042836;28;20984;-86
2024/03/09 01:28:56;;;;;;;18.87;13.90;;;6.00;99.90;;;;;;5041808;28;20494;-84
2024/03/09 01:31:28;;;;;;;21.60;15.50;;;6.00;99.90;;;;;;5041519;28;20455;-85
2024/03/09 01:33:59;;;;;;;19.67;12.83;;;6.00;99.90;;;;;;5039955;28;20496;-84
2024/03/09 01:36:28;;;;;;;22.97;13.40;;;6.00;99.90;;;;;;5040983;28;20453;-84
2024/03/09 01:38:56;;;;;;;16.30;13.60;;;5.90;99.90;;;;;;5040697;28;20479;-85
2024/03/09 01:41:25;;;;;;;23.77;14.27;;;5.80;99.90;;;;;;5038072;28;20477;-84
2024/03/09 01:43:55;;;;;;;17.50;13.80;;;5.80;99.90;;;;;;5040060;28;20946;-84
2024/03/09 01:46:26;;;;;;;19.20;12.37;;;5.90;99.90;;;;;;5043783;28;21493;-85
2024/03/09 01:48:54;;;;;;;20.47;13.10;;;5.90;99.90;;;;;;5040121;28;20573;-84
2024/03/09 01:51:24;;;;;;;19.87;13.13;;;5.90;99.90;;;;;;5041959;28;20539;-85
2024/03/09 01:53:55;;;;;;;13.90;10.90;;;5.90;99.90;;;;;;5041415;28;20455;-85
2024/03/09 01:56:27;;;;;;;12.77;11.17;;;5.80;99.90;;;;;;5041347;28;20955;-85
2024/03/09 01:58:56;;;;;;;18.70;12.70;;;5.80;99.90;;;;;;5041851;28;20588;-85
2024/03/09 02:01:26;;;;;;;15.63;10.73;;;5.80;99.90;;;;;;5040334;28;20441;-84
2024/03/09 02:03:59;;;;;;;13.20;10.77;;;5.80;99.90;;;;;;5040726;28;20530;-83
2024/03/09 02:06:32;;;;;;;15.57;11.80;;;5.80;99.90;;;;;;5039286;28;20455;-84
2024/03/09 02:09:07;;;;;;;12.27;10.73;;;5.90;99.90;;;;;;5041843;28;20993;-84
2024/03/09 02:11:37;;;;;;;15.83;12.30;;;6.00;99.90;;;;;;5044629;28;20494;-84
2024/03/09 02:14:06;;;;;;;16.07;11.77;;;5.90;99.90;;;;;;5045778;28;20493;-84
2024/03/09 02:16:36;;;;;;;16.90;12.90;;;5.90;99.90;;;;;;5043358;28;20457;-83
2024/03/09 02:19:07;;;;;;;17.80;12.77;;;5.90;99.90;;;;;;5042143;28;20966;-83
2024/03/09 02:21:37;;;;;;;18.03;13.23;;;6.00;99.90;;;;;;5042886;28;20485;-82
2024/03/09 02:24:08;;;;;;;17.87;11.40;;;6.10;99.90;;;;;;5042248;28;20458;-83
2024/03/09 02:26:38;;;;;;;17.40;13.23;;;6.10;99.90;;;;;;5038846;28;20461;-82
2024/03/09 02:29:08;;;;;;;16.13;12.93;;;6.10;99.90;;;;;;5040711;28;21014;-82
2024/03/09 02:31:36;;;;;;;14.63;11.93;;;6.10;99.90;;;;;;5038931;28;20940;-82
2024/03/09 02:34:04;;;;;;;17.70;12.97;;;6.00;99.90;;;;;;5042773;28;20535;-83
2024/03/09 02:36:34;;;;;;;14.77;11.20;;;6.00;99.90;;;;;;5044530;28;20448;-83
2024/03/09 02:39:02;;;;;;;16.40;12.47;;;6.10;99.90;;;;;;5041650;28;20563;-83
2024/03/09 02:41:31;;;;;;;15.73;12.17;;;6.10;99.90;;;;;;5040516;28;21107;-83
2024/03/09 02:44:00;;;;;;;14.97;11.97;;;6.10;99.90;;;;;;5055383;28;20541;-83
2024/03/09 02:46:29;;;;;;;14.43;12.90;;;6.20;99.90;;;;;;5041878;28;20434;-83
2024/03/09 02:48:57;;;;;;;18.67;12.73;;;6.20;99.90;;;;;;5043446;28;20498;-83
2024/03/09 02:51:26;;;;;;;20.10;12.20;;;6.20;99.90;;;;;;5040123;28;20568;-82
2024/03/09 02:53:55;;;;;;;15.93;12.07;;;6.10;99.90;;;;;;5040337;28;20483;-82
2024/03/09 02:56:24;;;;;;;16.63;12.07;;;6.20;99.90;;;;;;5037418;28;20445;-82
2024/03/09 02:58:52;;;;;;;16.23;12.43;;;6.20;99.90;;;;;;5041091;28;20491;-83
2024/03/09 03:01:22;;;;;;;14.30;11.10;;;6.30;99.90;;;;;;5043755;28;20974;-83
2024/03/09 03:03:55;;;;;;;16.87;12.27;;;6.30;99.90;;;;;;5046025;28;20649;-81
2024/03/09 03:06:23;;;;;;;16.53;12.20;;;6.30;99.90;;;;;;5042959;28;21269;-83
2024/03/09 03:08:55;;;;;;;18.30;11.50;;;6.20;99.90;;;;;;5043564;28;20477;-82
2024/03/09 03:11:24;;;;;;;14.40;10.80;;;6.20;99.90;;;;;;5041843;28;20438;-82
2024/03/09 03:13:54;;;;;;;14.73;11.37;;;6.10;99.90;;;;;;5044436;28;20990;-82
2024/03/09 03:16:29;;;;;;;13.53;10.63;;;6.20;99.90;;;;;;5043400;28;20449;-83
2024/03/09 03:18:59;;;;;;;16.13;11.37;;;6.20;99.90;;;;;;5041909;28;20594;-83
2024/03/09 03:21:28;;;;;;;15.93;11.33;;;5.90;99.90;;;;;;5044222;28;20486;-82
2024/03/09 03:23:56;;;;;;;17.97;11.70;;;6.10;99.90;;;;;;5042825;28;20526;-82
2024/03/09 03:26:24;;;;;;;16.10;11.97;;;6.20;99.90;;;;;;5045470;28;20595;-82
2024/03/09 03:28:53;;;;;;;15.43;12.40;;;6.20;99.90;;;;;;5043373;28;20479;-83
2024/03/09 03:31:22;;;;;;;17.63;11.77;;;6.30;99.90;;;;;;5042455;28;20505;-82
2024/03/09 03:33:51;;;;;;;17.93;11.53;;;6.30;99.90;;;;;;5040406;28;20989;-82
2024/03/09 03:36:23;;;;;;;15.30;11.20;;;6.30;99.90;;;;;;5040412;28;20449;-82
2024/03/09 03:38:51;;;;;;;13.97;10.63;;;6.40;99.90;;;;;;5040529;28;20576;-82
2024/03/09 03:41:22;;;;;;;18.30;11.47;;;6.40;99.90;;;;;;5042618;28;20457;-83
2024/03/09 03:43:51;;;;;;;15.57;9.80;;;6.40;99.90;;;;;;5044592;28;20463;-83
2024/03/09 03:46:19;;;;;;;14.20;11.23;;;6.50;99.90;;;;;;5043430;28;20970;-82
2024/03/09 03:48:52;;;;;;;13.47;10.80;;;6.70;99.90;;;;;;5045365;28;20899;-83
2024/03/09 03:51:20;;;;;;;16.83;12.53;;;6.70;99.90;;;;;;5044523;28;20556;-84
2024/03/09 03:53:48;;;;;;;16.60;11.67;;;6.40;99.90;;;;;;5047080;28;20494;-83
2024/03/09 03:56:17;;;;;;;16.00;11.40;;;6.30;99.90;;;;;;5044100;28;20962;-84
2024/03/09 03:58:45;;;;;;;17.60;12.33;;;6.30;99.90;;;;;;5043445;28;20800;-83
2024/03/09 04:01:13;;;;;;;11.00;9.40;;;6.40;99.90;;;;;;5043211;28;20503;-82
2024/03/09 04:03:41;;;;;;;12.47;9.80;;;6.60;99.90;;;;;;5043396;28;20446;-84
2024/03/09 04:06:11;;;;;;;11.77;10.23;;;6.60;99.90;;;;;;5041771;28;20659;-84
2024/03/09 04:08:39;;;;;;;11.93;9.97;;;6.70;99.90;;;;;;5041359;28;20479;-83
2024/03/09 04:11:08;;;;;;;13.20;9.53;;;6.70;99.90;;;;;;5044037;28;20453;-83
2024/03/09 04:13:36;;;;;;;11.80;10.30;;;6.80;99.90;;;;;;5045071;28;20580;-84
2024/03/09 04:16:05;;;;;;;11.73;8.30;;;6.80;99.90;;;;;;5041574;28;20480;-83
2024/03/09 04:18:36;;;;;;;10.00;8.13;;;6.90;99.90;;;;;;5040191;28;20458;-83
2024/03/09 04:21:04;;;;;;;9.20;7.70;;;6.90;99.90;;;;;;5043370;28;20679;-84
2024/03/09 04:23:35;;;;;;;8.93;7.73;;;7.00;99.90;;;;;;5042243;28;20447;-83
2024/03/09 04:26:03;;;;;;;8.90;7.50;;;7.00;99.90;;;;;;5045259;28;20461;-84
2024/03/09 04:28:32;;;;;;;12.93;9.67;;;7.00;99.90;;;;;;5045361;28;20489;-82
2024/03/09 04:31:01;;;;;;;12.43;9.17;;;7.00;99.90;;;;;;5047986;28;20449;-84
2024/03/09 04:33:30;;;;;;;10.40;8.07;;;7.00;99.90;;;;;;5043164;28;20457;-83
2024/03/09 04:35:59;;;;;;;9.50;8.10;;;7.00;99.90;;;;;;5041801;28;20457;-82
2024/03/09 04:38:27;;;;;;;11.83;9.40;;;7.10;99.90;;;;;;5042364;28;20481;-83
2024/03/09 04:40:57;;;;;;;13.90;9.83;;;7.10;99.90;;;;;;5039477;28;20456;-83
2024/03/09 04:43:26;;;;;;;11.83;10.03;;;7.20;99.90;;;;;;5043752;28;20464;-83
2024/03/09 04:45:55;;;;;;;15.77;11.50;;;7.20;99.90;;;;;;5041376;28;20447;-84
2024/03/09 04:48:23;;;;;;;14.60;11.20;;;7.20;99.90;;;;;;5040951;28;20466;-84
2024/03/09 04:50:52;;;;;;;15.80;10.73;;;7.10;99.90;;;;;;4997938;28;1122472;-83
2024/03/09 04:53:20;;;;;;;14.00;11.83;;;7.00;99.90;;;;;;5042304;28;20280;-83
2024/03/09 04:55:51;;;;;;;15.40;11.47;;;6.90;99.90;;;;;;5042275;28;20465;-84
2024/03/09 04:58:21;;;;;;;16.10;11.40;;;7.00;99.90;;;;;;5044343;28;20473;-82
2024/03/09 05:00:50;;;;;;;15.40;11.60;;;7.00;99.90;;;;;;5041924;28;20879;-83
2024/03/09 05:03:19;;;;;;;14.73;12.27;;;7.10;99.90;;;;;;5044207;28;20452;-82
2024/03/09 05:05:48;;;;;;;15.90;13.67;;;7.20;99.90;;;;;;5042728;28;20453;-83
2024/03/09 05:08:16;;;;;;;17.80;12.47;;;7.10;99.90;;;;;;5040539;28;20472;-82
2024/03/09 05:10:45;;;;;;;17.37;12.70;;;6.90;99.90;;;;;;5040073;28;20548;-82
2024/03/09 05:13:13;;;;;;;20.33;13.90;;;6.80;99.90;;;;;;5042282;28;20459;-82
2024/03/09 05:15:43;;;;;;;18.50;13.93;;;6.80;99.90;;;;;;5044836;28;20952;-85
2024/03/09 05:18:11;;;;;;;16.63;13.17;;;6.80;99.90;;;;;;5044683;28;20475;-83
2024/03/09 05:20:40;;;;;;;16.53;12.33;;;6.80;99.90;;;;;;5040874;28;20470;-83
2024/03/09 05:23:08;;;;;;;18.87;13.90;;;6.70;99.90;;;;;;5042271;28;20461;-84
2024/03/09 05:25:43;;;;;;;16.40;12.57;;;6.70;99.90;;;;;;5045105;28;20446;-84
2024/03/09 05:28:12;;;;;;;17.40;11.13;;;6.70;99.90;;;;;;5041170;28;20469;-83
2024/03/09 05:30:44;;;;;;;14.33;11.30;;;6.50;99.90;;;;;;5040034;28;20531;-83
2024/03/09 05:33:13;;;;;;;15.43;13.07;;;6.30;99.90;;;;;;5039649;28;21421;-84
2024/03/09 05:35:42;;;;;;;14.00;11.60;;;6.30;99.90;;;;;;5044528;28;20445;-83
2024/03/09 05:38:10;;;;;;;14.90;11.17;;;6.40;99.90;;;;;;5045013;28;20973;-84
2024/03/09 05:40:39;;;;;;;15.33;11.90;;;6.40;99.90;;;;;;5039167;28;20458;-83
2024/03/09 05:43:09;;;;;;;17.00;11.60;;;6.50;99.90;;;;;;5043394;28;21032;-83
2024/03/09 05:45:39;;;;;;;14.90;12.13;;;6.30;99.90;;;;;;5046701;28;20448;-85
2024/03/09 05:48:10;;;;;;;16.10;12.33;;;6.20;99.90;;;;;;5042364;28;20464;-82
2024/03/09 05:50:39;;;;;;;13.30;11.90;;;6.20;99.90;;;;;;5041701;28;20484;-84
2024/03/09 05:53:08;;;;;;;15.83;11.43;;;6.10;99.90;;;;;;5044554;28;20522;-84
2024/03/09 05:55:39;;;;;;;16.50;11.57;;;6.10;99.90;;;;;;5042691;28;20458;-85
2024/03/09 05:58:09;;;;;;;13.63;10.57;;;6.00;99.90;;;;;;5042700;28;20980;-83
2024/03/09 06:00:37;;;;;;;15.50;11.77;;;6.00;99.90;;;;;;5040221;28;20468;-84
2024/03/09 06:03:06;;;;;;;17.47;12.20;;;6.00;99.90;;;;;;5041332;28;20502;-84
2024/03/09 06:05:37;;;;;;;16.37;13.90;;;6.10;99.90;;;;;;5044738;28;20441;-83
2024/03/09 06:08:07;;;;;;;19.30;12.90;;;6.10;99.90;;;;;;5041916;28;20717;-84
2024/03/09 06:10:35;;;;;;;20.37;13.40;;;6.10;99.90;;;;;;5043563;28;20837;-83
2024/03/09 06:13:11;;;;;;;17.43;13.80;;;6.10;99.90;;;;;;5041425;28;20477;-82
2024/03/09 06:15:41;;;;;;;14.90;12.10;;;6.10;99.90;;;;;;5039390;28;20448;-82
2024/03/09 06:18:09;;;;;;;20.10;14.17;;;6.10;99.90;;;;;;5039349;28;20484;-81
2024/03/09 06:20:41;;;;;;;17.03;12.53;;;6.00;99.90;;;;;;5040541;28;20452;-82
2024/03/09 06:23:09;;;;;;;16.90;12.30;;;6.00;99.90;;;;;;5042864;28;20458;-82
2024/03/09 06:25:40;;;;;;;19.00;13.13;;;5.90;99.90;;;;;;5038984;28;20871;-82
2024/03/09 06:28:13;;;;;;;14.73;12.80;;;5.90;99.90;;;;;;5037051;28;20478;-81
2024/03/09 06:30:42;;;;;;;19.10;13.70;;;6.00;99.90;;;;;;5037483;28;20541;-83
2024/03/09 06:33:11;;;;;;;20.67;16.67;;;6.00;99.90;;;;;;5038476;28;20977;-81
2024/03/09 06:35:41;;;;;;;21.45;14.52;;;6.00;99.90;;;;;;5037768;28;20896;-81
2024/03/09 06:38:14;;;;;;;16.73;13.57;;;6.00;99.90;;;;;;5034124;28;20233;-79
2024/03/09 06:40:45;;;;;;;18.53;13.40;;;6.20;99.90;;;;;;5039549;28;20462;-81
2024/03/09 06:43:16;;;;;;;21.25;15.95;;;6.40;99.90;;;;;;5041869;28;20431;-84
2024/03/09 06:45:46;;;;;;;16.27;12.83;;;6.50;99.90;;;;;;5041945;28;20236;-84
2024/03/09 06:48:15;;;;;;;18.47;13.57;;;6.60;99.90;;;;;;5052165;28;20484;-79
2024/03/09 06:50:45;;;;;;;16.63;13.07;;;6.70;99.90;;;;;;5041212;28;20521;-82
2024/03/09 06:53:13;;;;;;;15.47;12.90;;;6.60;99.90;;;;;;5040042;28;20482;-82
2024/03/09 06:55:42;;;;;;;15.97;13.53;;;6.60;99.90;;;;;;5035937;28;20458;-81
2024/03/09 06:58:11;;;;;;;18.50;13.93;;;6.60;99.90;;;;;;5037533;28;20472;-82
2024/03/09 07:00:40;;;;;;;17.10;13.80;;;6.60;99.90;;;;;;5041527;28;20460;-83
2024/03/09 07:03:09;;;;;;;16.30;12.70;;;6.70;99.90;;;;;;5036339;28;20844;-80
2024/03/09 07:05:37;;;;;;;18.55;13.82;;;6.70;99.90;;;;;;5036996;28;20450;-78
2024/03/09 07:08:10;;;;;;;19.63;15.17;;;6.80;99.90;;;;;;5034355;28;20919;-79
2024/03/09 07:10:39;;;;;;;18.83;14.90;;;6.80;99.90;;;;;;5038278;28;20494;-80
2024/03/09 07:13:09;;;;;;;20.30;14.10;;;7.00;99.90;;;;;;5035522;28;20881;-79
2024/03/09 07:15:37;;;;;;;17.83;13.43;;;7.10;99.90;;;;;;5035764;28;20472;-78
2024/03/09 07:18:07;;;;;;;15.53;12.37;;;7.20;99.90;;;;;;5038172;28;20537;-81
2024/03/09 07:20:39;;;;;;;20.73;13.30;;;7.30;99.90;;;;;;5036446;28;20533;-80
2024/03/09 07:23:08;;;;;;;16.80;13.60;;;7.30;99.90;;;;;;5036137;28;20469;-78
2024/03/09 07:25:38;;;;;;;19.87;14.07;;;7.40;99.90;;;;;;5033652;28;20888;-80
2024/03/09 07:28:08;;;;;;;16.70;12.90;;;7.50;99.90;;;;;;5037784;28;20855;-81
2024/03/09 07:30:37;;;;;;;15.80;12.63;;;7.50;99.90;;;;;;5035362;28;20471;-80
2024/03/09 07:33:07;;;;;;;16.30;12.80;;;7.70;99.90;;;;;;5034674;28;20473;-79
2024/03/09 07:35:36;;;;;;;21.23;14.87;;;7.80;99.90;;;;;;5037130;28;20446;-78
2024/03/09 07:38:05;;;;;;;16.97;12.07;;;8.00;99.90;;;;;;5036099;28;20537;-78
2024/03/09 07:40:36;;;;;;;15.67;11.90;;;8.10;99.90;;;;;;5037186;28;20462;-79
2024/03/09 07:43:06;;;;;;;18.17;12.30;;;8.30;99.90;;;;;;5035566;28;20550;-79
2024/03/09 07:45:35;;;;;;;16.07;11.40;;;8.50;99.90;;;;;;5037102;28;20455;-79
2024/03/09 07:48:04;;;;;;;14.47;11.67;;;8.60;99.90;;;;;;5040825;28;20864;-79
2024/03/09 07:50:33;;;;;;;15.37;11.47;;;8.70;99.90;;;;;;5041420;28;20486;-80
2024/03/09 07:53:02;;;;;;;15.93;13.70;;;8.80;99.90;;;;;;5040617;28;20452;-79
2024/03/09 07:55:32;;;;;;;16.13;14.20;;;8.80;99.90;;;;;;5039498;28;20251;-78
2024/03/09 07:58:02;;;;;;;17.07;12.33;;;9.10;99.90;;;;;;5039320;28;20473;-78
2024/03/09 08:00:50;;;;;;;16.10;12.43;;;9.40;99.90;;;;;;5030525;28;20593;-80
2024/03/09 08:03:20;;;;;;;17.70;13.20;;;9.80;99.90;;;;;;5037361;28;20467;-78
2024/03/09 08:05:49;;;;;;;16.07;11.50;;;10.30;99.90;;;;;;5032701;28;20471;-77
2024/03/09 08:08:17;;;;;;;15.80;11.17;;;10.50;99.90;;;;;;5037916;28;20481;-79
2024/03/09 08:10:52;;;;;;;13.30;10.93;;;10.90;99.90;;;;;;5041936;28;20476;-77
2024/03/09 08:13:22;;;;;;;12.10;10.20;;;11.50;99.90;;;;;;5040434;28;20443;-79
2024/03/09 08:15:54;;;;;;;14.03;9.50;;;11.90;99.90;;;;;;5041049;28;21033;-76
2024/03/09 08:18:23;;;;;;;15.67;9.97;;;12.30;99.90;;;;;;5039976;28;20813;-77
2024/03/09 08:20:51;;;;;;;12.20;9.33;;;12.60;99.90;;;;;;5041891;28;21054;-79
2024/03/09 08:23:20;;;;;;;12.27;10.37;;;12.80;99.90;;;;;;5038538;28;20452;-77
2024/03/09 08:25:48;;;;;;;14.43;10.63;;;13.20;99.90;;;;;;5037471;28;20466;-79
2024/03/09 08:28:19;;;;;;;10.50;8.10;;;13.40;99.90;;;;;;5038795;28;20487;-78
2024/03/09 08:30:48;;;;;;;11.63;8.90;;;13.90;99.90;;;;;;5043526;28;20474;-76
2024/03/09 08:33:18;;;;;;;12.70;10.17;;;14.30;99.90;;;;;;5038671;28;21261;-78
2024/03/09 08:35:46;;;;;;;10.03;8.17;;;14.70;99.90;;;;;;5040917;28;20458;-79
2024/03/09 08:38:14;;;;;;;11.00;9.20;;;14.90;99.90;;;;;;5036767;28;20478;-78
2024/03/09 08:40:42;;;;;;;14.37;9.70;;;15.30;99.90;;;;;;5039869;28;20484;-78
2024/03/09 08:43:11;;;;;;;10.60;9.10;;;15.60;99.90;;;;;;5037544;28;21055;-78
2024/03/09 08:45:42;;;;;;;9.47;8.50;;;16.10;99.90;;;;;;5040282;28;20827;-80
2024/03/09 08:48:12;;;;;;;10.87;9.33;;;16.60;99.90;;;;;;5037896;28;20470;-81
2024/03/09 08:50:41;;;;;;;10.83;8.50;;;17.10;99.90;;;;;;5042227;28;20969;-82
2024/03/09 08:53:10;;;;;;;10.83;9.03;;;17.50;99.90;;;;;;5040252;28;20465;-80
2024/03/09 08:55:39;;;;;;;10.10;8.33;;;18.00;99.90;;;;;;5039068;28;20511;-80
2024/03/09 08:58:08;;;;;;;8.37;7.40;;;18.60;99.90;;;;;;5041261;28;20472;-79
2024/03/09 09:00:37;;;;;;;13.00;9.40;;;18.80;99.90;;;;;;5036714;28;20469;-77
2024/03/09 09:03:07;;;;;;;10.03;7.83;;;18.90;99.90;;;;;;5038456;28;20461;-80
2024/03/09 09:05:35;;;;;;;9.47;8.67;;;18.80;99.90;;;;;;5036473;28;20471;-79
2024/03/09 09:08:06;;;;;;;9.40;8.40;;;19.30;99.90;;;;;;5036939;28;20471;-79
2024/03/09 09:10:35;;;;;;;9.97;8.07;;;19.30;99.90;;;;;;5036047;28;20460;-79
2024/03/09 09:13:04;;;;;;;8.90;8.00;;;19.90;99.90;;;;;;5035150;28;20445;-77
2024/03/09 09:15:33;;;;;;;10.05;9.05;;;20.10;99.90;;;;;;5035982;28;20440;-78
2024/03/09 09:18:02;;;;;;;9.57;8.57;;;20.60;99.90;;;;;;5038297;28;20217;-78
2024/03/09 09:20:30;;;;;;;10.37;8.20;;;20.70;99.90;;;;;;5039403;28;20522;-79
2024/03/09 09:22:59;;;;;;;9.23;7.80;;;21.30;99.90;;;;;;5039039;28;20456;-78
2024/03/09 09:25:29;;;;;;;9.30;8.40;;;21.20;99.90;;;;;;5037747;28;20456;-79
2024/03/09 09:28:01;;;;;;;8.53;7.50;;;21.40;99.90;;;;;;5037171;28;20553;-77
2024/03/09 09:30:30;;;;;;;8.80;7.47;;;21.70;99.90;;;;;;5039905;28;20470;-79
2024/03/09 09:32:59;;;;;;;7.07;6.47;;;22.40;99.90;;;;;;5038177;28;20553;-79
2024/03/09 09:35:27;;;;;;;7.17;6.57;;;21.80;99.90;;;;;;5038456;28;20563;-80
2024/03/09 09:37:57;;;;;;;7.57;6.90;;;22.70;99.90;;;;;;5033515;28;20572;-76
2024/03/09 09:40:29;;;;;;;7.60;6.77;;;23.80;99.90;;;;;;5032044;28;20976;-79
2024/03/09 09:43:00;;;;;;;9.30;6.73;;;24.10;99.90;;;;;;5038651;28;20530;-79
2024/03/09 09:45:33;;;;;;;8.57;6.20;;;24.60;99.90;;;;;;5037878;28;20548;-79
2024/03/09 09:48:02;;;;;;;5.97;5.47;;;24.90;99.90;;;;;;5039738;28;21213;-80
2024/03/09 09:50:35;;;;;;;6.00;5.40;;;25.20;99.90;;;;;;5035966;28;20495;-78
2024/03/09 09:53:07;;;;;;;6.17;5.57;;;25.40;99.90;;;;;;5037116;28;20475;-80
2024/03/09 09:55:38;;;;;;;5.93;5.43;;;25.60;99.90;;;;;;5038470;28;20444;-79
2024/03/09 09:58:07;;;;;;;8.37;5.53;;;24.90;99.90;;;;;;5035605;28;20461;-79
2024/03/09 10:00:37;;;;;;;7.27;6.10;;;25.60;99.90;;;;;;5031920;28;20495;-77
2024/03/09 10:03:05;;;;;;;5.93;5.43;;;25.90;99.90;;;;;;5037283;28;20451;-79
2024/03/09 10:05:34;;;;;;;6.87;6.20;;;24.80;99.90;;;;;;5037628;28;20456;-77
2024/03/09 10:08:04;;;;;;;6.47;5.70;;;24.20;99.90;;;;;;5040202;28;20521;-79
2024/03/09 10:10:36;;;;;;;6.27;5.63;;;23.30;99.90;;;;;;5038245;28;20451;-79
2024/03/09 10:13:08;;;;;;;7.47;5.70;;;23.20;99.90;;;;;;5038375;28;20490;-79
2024/03/09 10:15:40;;;;;;;6.70;6.00;;;22.90;99.90;;;;;;5038369;28;20447;-79
2024/03/09 10:18:09;;;;;;;5.90;4.80;;;22.90;99.90;;;;;;5036772;28;20475;-79
2024/03/09 10:20:38;;;;;;;6.00;5.40;;;22.50;99.90;;;;;;5032125;28;20529;-76
2024/03/09 10:23:11;;;;;;;6.03;5.43;;;21.70;99.90;;;;;;5034292;28;20449;-78
2024/03/09 10:25:40;;;;;;;6.50;5.90;;;22.80;99.90;;;;;;5036458;28;20448;-76
2024/03/09 10:28:11;;;;;;;5.73;5.17;;;22.20;99.90;;;;;;5035997;28;20543;-79
2024/03/09 10:30:40;;;;;;;6.33;5.60;;;24.10;99.90;;;;;;5038173;28;20443;-78
2024/03/09 10:33:11;;;;;;;5.60;5.03;;;22.30;99.90;;;;;;5033132;28;20529;-78
2024/03/09 10:35:42;;;;;;;5.90;4.33;;;22.40;99.90;;;;;;5038406;28;20435;-79
2024/03/09 10:38:12;;;;;;;5.63;5.13;;;24.00;99.90;;;;;;5032800;28;20463;-79
2024/03/09 10:40:42;;;;;;;5.13;4.30;;;24.20;99.90;;;;;;5036281;28;20200;-76
2024/03/09 10:43:15;;;;;;;5.20;4.33;;;25.30;99.90;;;;;;5034789;28;20621;-79
2024/03/09 10:45:50;;;;;;;3.70;3.40;;;27.60;99.90;;;;;;5031880;28;20451;-82
2024/03/09 10:48:21;;;;;;;4.30;3.90;;;29.60;99.90;;;;;;5038336;28;21067;-81
2024/03/09 10:51:14;;;;;;;3.90;3.60;;;31.00;99.90;;;;;;5036293;28;20471;-81
2024/03/09 10:53:56;;;;;;;4.40;4.03;;;32.60;99.90;;;;;;5032536;28;20569;-81
2024/03/09 10:56:25;;;;;;;3.37;3.17;;;33.30;99.90;;;;;;5032819;28;20909;-81
2024/03/09 10:58:57;;;;;;;3.40;3.20;;;34.10;99.90;;;;;;5026563;28;20495;-79
2024/03/09 11:01:25;;;;;;;3.30;3.10;;;35.10;99.90;;;;;;5036491;28;20483;-78
2024/03/09 11:03:54;;;;;;;4.50;4.18;;;33.10;99.90;;;;;;5033702;28;20793;-78
2024/03/09 11:06:23;;;;;;;4.17;3.87;;;32.10;99.90;;;;;;5029864;28;20197;-85
2024/03/09 11:08:54;;;;;;;4.03;3.70;;;31.80;99.90;;;;;;5026606;28;20484;-82
2024/03/09 11:11:24;;;;;;;5.47;5.07;;;28.80;99.90;;;;;;5034419;28;20455;-80
2024/03/09 11:13:54;;;;;;;4.57;4.27;;;29.40;99.90;;;;;;5035019;28;20475;-80
2024/03/09 11:16:24;;;;;;;4.77;4.37;;;30.90;99.90;;;;;;5037948;28;20458;-82
2024/03/09 11:18:55;;;;;;;4.83;4.50;;;31.30;99.90;;;;;;5034109;28;23254;-79
2024/03/09 11:21:27;;;;;;;4.73;4.33;;;32.60;99.90;;;;;;5036981;28;20454;-82
2024/03/09 11:23:59;;;;;;;4.40;4.10;;;32.70;99.90;;;;;;5041563;28;20453;-78
2024/03/09 11:26:28;;;;;;;4.50;4.27;;;33.30;99.90;;;;;;5039617;28;21269;-78
2024/03/09 11:28:58;;;;;;;5.57;5.10;;;34.00;99.90;;;;;;5037239;28;20447;-79
2024/03/09 11:31:29;;;;;;;5.90;5.13;;;33.10;99.90;;;;;;5041657;28;20193;-78
2024/03/09 11:34:13;;;;;;;5.33;4.93;;;30.00;99.90;;;;;;5038449;28;20487;-79
2024/03/09 11:36:50;;;;;;;5.63;5.23;;;29.20;99.90;;;;;;5033353;28;20514;-78
2024/03/09 11:39:22;;;;;;;6.50;5.90;;;27.50;99.90;;;;;;5036893;28;20467;-78
2024/03/09 11:41:52;;;;;;;5.33;4.93;;;24.10;99.90;;;;;;5039853;28;20471;-78
2024/03/09 11:44:26;;;;;;;5.47;5.07;;;21.80;91.10;;;;;;5037832;28;20451;-78
2024/03/09 11:46:56;;;;;;;5.67;5.20;;;21.40;86.50;;;;;;5038951;28;20459;-77
2024/03/09 11:49:27;;;;;;;6.70;6.00;;;21.10;84.00;;;;;;5032870;28;20479;-78
2024/03/09 11:51:56;;;;;;;5.57;4.97;;;20.30;71.80;;;;;;5039126;28;20446;-80
2024/03/09 11:54:26;;;;;;;7.30;5.33;;;20.10;70.10;;;;;;5039777;28;20481;-75
2024/03/09 11:56:56;;;;;;;6.10;5.50;;;19.80;66.00;;;;;;5041634;28;20999;-77
2024/03/09 11:59:26;;;;;;;5.97;5.37;;;19.60;62.10;;;;;;5038312;28;20474;-76
2024/03/09 12:02:02;;;;;;;5.60;5.10;;;19.70;63.90;;;;;;5039897;28;20915;-78
2024/03/09 12:04:34;;;;;;;7.87;6.47;;;19.90;68.00;;;;;;5037565;28;20444;-77
2024/03/09 12:07:06;;;;;;;6.80;5.80;;;19.40;60.90;;;;;;5038235;28;20527;-80
2024/03/09 12:09:35;;;;;;;5.40;4.60;;;19.00;55.20;;;;;;5035651;28;20471;-80
2024/03/09 12:12:11;;;;;;;6.10;5.20;;;18.70;53.10;;;;;;5036414;28;21114;-77
2024/03/09 12:14:42;;;;;;;5.50;5.00;;;19.00;55.80;;;;;;5039291;28;20487;-76
2024/03/09 12:17:11;;;;;;;7.00;6.30;;;18.90;54.00;;;;;;5036405;28;20509;-79
2024/03/09 12:19:41;;;;;;;7.50;6.40;;;18.90;55.70;;;;;;5039543;28;20479;-76
2024/03/09 12:22:10;;;;;;;7.27;6.57;;;18.90;56.00;;;;;;5034095;28;20462;-76
2024/03/09 12:24:38;;;;;;;6.20;5.60;;;18.60;53.70;;;;;;5032662;28;20478;-80
2024/03/09 12:27:08;;;;;;;5.87;5.30;;;18.70;54.10;;;;;;5036456;28;20463;-80
2024/03/09 12:29:38;;;;;;;6.87;6.17;;;18.60;52.70;;;;;;5037656;28;20884;-80
2024/03/09 12:32:09;;;;;;;6.17;5.57;;;18.60;53.50;;;;;;5035676;28;20460;-79
2024/03/09 12:34:38;;;;;;;7.27;6.13;;;18.80;55.30;;;;;;5039731;28;20476;-77
2024/03/09 12:37:07;;;;;;;6.90;6.20;;;18.90;57.20;;;;;;5039622;28;21067;-79
2024/03/09 12:39:38;;;;;;;7.80;6.03;;;18.80;55.40;;;;;;5036144;28;20480;-78
2024/03/09 12:42:09;;;;;;;6.37;5.43;;;18.70;53.30;;;;;;5042368;28;21348;-77
2024/03/09 12:44:38;;;;;;;5.97;5.20;;;18.60;52.50;;;;;;5039446;28;20989;-79
2024/03/09 12:47:11;;;;;;;5.60;4.97;;;18.10;46.70;;;;;;5040774;28;20449;-78
2024/03/09 12:49:40;;;;;;;5.33;4.00;;;17.80;44.40;;;;;;5041309;28;20492;-80
2024/03/09 12:52:09;;;;;;;5.80;5.30;;;17.90;44.80;;;;;;5039968;28;20539;-77
2024/03/09 12:54:44;;;;;;;5.90;4.80;;;17.80;57.60;;;;;;5040470;28;20485;-78